sensor_id;sensor_type;location;lat;lon;timestamp;pressure;altitude;pressure_sealevel;temperature;humidity
9249;BME280;4660;41.768;26.198;2023-04-06T00:02:07;100641.88;;;6.24;100.00
9249;BME280;4660;41.768;26.198;2023-04-06T00:04:33;100650.09;;;6.21;100.00
9249;BME280;4660;41.768;26.198;2023-04-06T00:06:58;100663.28;;;6.12;100.00
9249;BME280;4660;41.768;26.198;2023-04-06T00:09:24;100654.44;;;6.11;100.00
9249;BME280;4660;41.768;26.198;2023-04-06T00:11:50;100650.84;;;5.99;100.00
9249;BME280;4660;41.768;26.198;2023-04-06T00:14:15;100648.84;;;5.90;100.00
9249;BME280;4660;41.768;26.198;2023-04-06T00:16:42;100634.34;;;5.82;100.00
9249;BME280;4660;41.768;26.198;2023-04-06T00:19:08;100639.13;;;5.89;100.00
9249;BME280;4660;41.768;26.198;2023-04-06T00:21:33;100649.72;;;5.91;100.00
9249;BME280;4660;41.768;26.198;2023-04-06T00:23:59;100640.53;;;5.82;100.00
9249;BME280;4660;41.768;26.198;2023-04-06T00:26:24;100630.59;;;5.84;100.00
9249;BME280;4660;41.768;26.198;2023-04-06T00:28:50;100640.28;;;5.98;100.00
9249;BME280;4660;41.768;26.198;2023-04-06T00:31:17;100647.84;;;6.04;100.00
9249;BME280;4660;41.768;26.198;2023-04-06T00:33:42;100632.66;;;5.80;100.00
9249;BME280;4660;41.768;26.198;2023-04-06T00:36:08;100635.97;;;5.71;100.00
9249;BME280;4660;41.768;26.198;2023-04-06T00:38:33;100652.75;;;5.73;100.00
9249;BME280;4660;41.768;26.198;2023-04-06T00:40:59;100638.97;;;5.79;100.00
9249;BME280;4660;41.768;26.198;2023-04-06T00:43:25;100638.19;;;5.77;100.00
9249;BME280;4660;41.768;26.198;2023-04-06T00:45:50;100653.47;;;5.75;100.00
9249;BME280;4660;41.768;26.198;2023-04-06T00:48:16;100613.03;;;5.45;100.00
9249;BME280;4660;41.768;26.198;2023-04-06T00:50:42;100639.56;;;5.59;100.00
9249;BME280;4660;41.768;26.198;2023-04-06T00:53:07;100634.88;;;5.50;100.00
9249;BME280;4660;41.768;26.198;2023-04-06T00:55:33;100627.78;;;5.38;100.00
9249;BME280;4660;41.768;26.198;2023-04-06T00:58:01;100642.69;;;5.40;100.00
9249;BME280;4660;41.768;26.198;2023-04-06T01:00:27;100639.47;;;5.48;100.00
9249;BME280;4660;41.768;26.198;2023-04-06T01:02:53;100635.41;;;5.55;100.00
9249;BME280;4660;41.768;26.198;2023-04-06T01:05:19;100638.94;;;5.43;100.00
9249;BME280;4660;41.768;26.198;2023-04-06T01:07:44;100645.66;;;5.36;100.00
9249;BME280;4660;41.768;26.198;2023-04-06T01:10:10;100635.91;;;5.23;100.00
9249;BME280;4660;41.768;26.198;2023-04-06T01:12:35;100632.94;;;5.15;100.00
9249;BME280;4660;41.768;26.198;2023-04-06T01:15:03;100651.59;;;5.15;100.00
9249;BME280;4660;41.768;26.198;2023-04-06T01:17:29;100653.63;;;4.99;100.00
9249;BME280;4660;41.768;26.198;2023-04-06T01:19:55;100647.44;;;4.98;100.00
9249;BME280;4660;41.768;26.198;2023-04-06T01:22:20;100636.56;;;4.89;100.00
9249;BME280;4660;41.768;26.198;2023-04-06T01:24:46;100647.00;;;4.92;100.00
9249;BME280;4660;41.768;26.198;2023-04-06T01:27:12;100638.19;;;4.79;100.00
9249;BME280;4660;41.768;26.198;2023-04-06T01:29:39;100643.91;;;4.85;100.00
9249;BME280;4660;41.768;26.198;2023-04-06T01:32:07;100627.81;;;5.00;100.00
9249;BME280;4660;41.768;26.198;2023-04-06T01:34:32;100636.69;;;5.00;100.00
9249;BME280;4660;41.768;26.198;2023-04-06T01:36:58;100615.22;;;4.63;100.00
9249;BME280;4660;41.768;26.198;2023-04-06T01:39:24;100625.59;;;4.81;100.00
9249;BME280;4660;41.768;26.198;2023-04-06T01:41:49;100622.19;;;4.79;100.00
9249;BME280;4660;41.768;26.198;2023-04-06T01:44:16;100628.69;;;4.75;100.00
9249;BME280;4660;41.768;26.198;2023-04-06T01:46:42;100629.00;;;4.83;100.00
9249;BME280;4660;41.768;26.198;2023-04-06T01:49:08;100617.28;;;4.73;100.00
9249;BME280;4660;41.768;26.198;2023-04-06T01:51:34;100635.38;;;4.67;100.00
9249;BME280;4660;41.768;26.198;2023-04-06T01:53:59;100630.38;;;4.76;100.00
9249;BME280;4660;41.768;26.198;2023-04-06T01:56:25;100620.81;;;4.86;100.00
9249;BME280;4660;41.768;26.198;2023-04-06T01:58:51;100622.28;;;4.90;100.00
9249;BME280;4660;41.768;26.198;2023-04-06T02:01:17;100619.94;;;4.73;100.00
9249;BME280;4660;41.768;26.198;2023-04-06T02:03:42;100619.09;;;4.59;100.00
9249;BME280;4660;41.768;26.198;2023-04-06T02:06:08;100627.19;;;4.58;100.00
9249;BME280;4660;41.768;26.198;2023-04-06T02:08:33;100622.72;;;4.58;100.00
9249;BME280;4660;41.768;26.198;2023-04-06T02:10:59;100612.03;;;4.46;100.00
9249;BME280;4660;41.768;26.198;2023-04-06T02:13:24;100599.31;;;4.24;100.00
9249;BME280;4660;41.768;26.198;2023-04-06T02:15:50;100618.59;;;4.27;100.00
9249;BME280;4660;41.768;26.198;2023-04-06T02:18:16;100595.13;;;4.07;100.00
9249;BME280;4660;41.768;26.198;2023-04-06T02:20:43;100578.91;;;3.97;100.00
9249;BME280;4660;41.768;26.198;2023-04-06T02:23:09;100600.44;;;4.07;100.00
9249;BME280;4660;41.768;26.198;2023-04-06T02:25:35;100595.22;;;4.05;100.00
9249;BME280;4660;41.768;26.198;2023-04-06T02:28:01;100590.38;;;4.25;100.00
9249;BME280;4660;41.768;26.198;2023-04-06T02:30:26;100593.38;;;4.46;100.00
9249;BME280;4660;41.768;26.198;2023-04-06T02:32:52;100590.50;;;4.49;100.00
9249;BME280;4660;41.768;26.198;2023-04-06T02:35:18;100593.69;;;4.41;100.00
9249;BME280;4660;41.768;26.198;2023-04-06T02:37:43;100587.06;;;4.21;100.00
9249;BME280;4660;41.768;26.198;2023-04-06T02:40:09;100570.75;;;4.00;100.00
9249;BME280;4660;41.768;26.198;2023-04-06T02:42:35;100563.34;;;3.91;100.00
9249;BME280;4660;41.768;26.198;2023-04-06T02:45:00;100576.06;;;4.00;100.00
9249;BME280;4660;41.768;26.198;2023-04-06T02:47:26;100578.91;;;3.97;100.00
9249;BME280;4660;41.768;26.198;2023-04-06T02:49:51;100600.47;;;4.20;100.00
9249;BME280;4660;41.768;26.198;2023-04-06T02:52:17;100598.75;;;4.06;100.00
9249;BME280;4660;41.768;26.198;2023-04-06T02:54:43;100584.91;;;4.01;100.00
9249;BME280;4660;41.768;26.198;2023-04-06T02:57:09;100581.91;;;4.05;100.00
9249;BME280;4660;41.768;26.198;2023-04-06T02:59:34;100586.41;;;4.18;100.00
9249;BME280;4660;41.768;26.198;2023-04-06T03:02:00;100587.72;;;4.25;100.00
9249;BME280;4660;41.768;26.198;2023-04-06T03:04:25;100595.34;;;4.04;100.00
9249;BME280;4660;41.768;26.198;2023-04-06T03:06:51;100597.69;;;4.08;100.00
9249;BME280;4660;41.768;26.198;2023-04-06T03:09:17;100594.25;;;4.06;100.00
9249;BME280;4660;41.768;26.198;2023-04-06T03:11:42;100581.25;;;3.89;100.00
9249;BME280;4660;41.768;26.198;2023-04-06T03:14:08;100584.34;;;3.96;100.00
9249;BME280;4660;41.768;26.198;2023-04-06T03:16:33;100577.78;;;4.01;100.00
9249;BME280;4660;41.768;26.198;2023-04-06T03:18:59;100577.03;;;4.12;100.00
9249;BME280;4660;41.768;26.198;2023-04-06T03:21:25;100561.28;;;4.09;100.00
9249;BME280;4660;41.768;26.198;2023-04-06T03:23:50;100571.31;;;4.18;100.00
9249;BME280;4660;41.768;26.198;2023-04-06T03:26:16;100591.66;;;4.32;100.00
9249;BME280;4660;41.768;26.198;2023-04-06T03:28:42;100594.25;;;4.46;100.00
9249;BME280;4660;41.768;26.198;2023-04-06T03:31:07;100596.41;;;4.79;100.00
9249;BME280;4660;41.768;26.198;2023-04-06T03:33:33;100578.22;;;4.97;100.00
9249;BME280;4660;41.768;26.198;2023-04-06T03:35:58;100595.44;;;4.80;100.00
9249;BME280;4660;41.768;26.198;2023-04-06T03:38:24;100584.34;;;4.61;100.00
9249;BME280;4660;41.768;26.198;2023-04-06T03:40:50;100585.09;;;4.50;100.00
9249;BME280;4660;41.768;26.198;2023-04-06T03:43:15;100587.53;;;4.53;100.00
9249;BME280;4660;41.768;26.198;2023-04-06T03:45:41;100591.03;;;4.41;100.00
9249;BME280;4660;41.768;26.198;2023-04-06T03:48:06;100579.41;;;4.17;100.00
9249;BME280;4660;41.768;26.198;2023-04-06T03:50:32;100569.06;;;4.25;100.00
9249;BME280;4660;41.768;26.198;2023-04-06T03:52:57;100578.75;;;4.26;100.00
9249;BME280;4660;41.768;26.198;2023-04-06T03:55:23;100586.34;;;4.32;100.00
9249;BME280;4660;41.768;26.198;2023-04-06T03:57:48;100570.22;;;4.08;100.00
9249;BME280;4660;41.768;26.198;2023-04-06T04:00:14;100590.88;;;4.04;100.00
9249;BME280;4660;41.768;26.198;2023-04-06T04:02:40;100601.50;;;4.04;100.00
9249;BME280;4660;41.768;26.198;2023-04-06T04:05:13;100590.69;;;4.33;100.00
9249;BME280;4660;41.768;26.198;2023-04-06T04:07:39;100604.44;;;4.27;100.00
9249;BME280;4660;41.768;26.198;2023-04-06T04:10:05;100564.38;;;4.16;100.00
9249;BME280;4660;41.768;26.198;2023-04-06T04:12:35;100572.78;;;4.09;100.00
9249;BME280;4660;41.768;26.198;2023-04-06T04:15:02;100451.91;;;3.34;100.00
9249;BME280;4660;41.768;26.198;2023-04-06T04:17:28;100419.56;;;3.27;100.00
9249;BME280;4660;41.768;26.198;2023-04-06T04:22:33;100454.91;;;3.42;100.00
9249;BME280;4660;41.768;26.198;2023-04-06T04:25:07;100453.97;;;3.43;100.00
9249;BME280;4660;41.768;26.198;2023-04-06T04:27:38;100604.56;;;4.38;100.00
9249;BME280;4660;41.768;26.198;2023-04-06T04:34:24;100488.44;;;3.97;100.00
9249;BME280;4660;41.768;26.198;2023-04-06T04:37:11;100503.75;;;4.06;100.00
9249;BME280;4660;41.768;26.198;2023-04-06T04:40:12;100483.25;;;4.08;100.00
9249;BME280;4660;41.768;26.198;2023-04-06T04:42:58;100510.38;;;4.13;100.00
9249;BME280;4660;41.768;26.198;2023-04-06T04:45:46;100494.16;;;3.91;100.00
9249;BME280;4660;41.768;26.198;2023-04-06T04:48:50;100607.16;;;4.65;100.00
9249;BME280;4660;41.768;26.198;2023-04-06T04:51:41;100491.50;;;3.91;100.00
9249;BME280;4660;41.768;26.198;2023-04-06T04:56:49;100484.06;;;3.96;100.00
9249;BME280;4660;41.768;26.198;2023-04-06T04:59:17;100543.50;;;4.35;100.00
9249;BME280;4660;41.768;26.198;2023-04-06T05:01:47;100501.22;;;4.05;100.00
9249;BME280;4660;41.768;26.198;2023-04-06T05:04:54;100469.88;;;3.83;100.00
9249;BME280;4660;41.768;26.198;2023-04-06T05:07:27;100515.50;;;4.17;100.00
9249;BME280;4660;41.768;26.198;2023-04-06T05:10:06;100620.38;;;4.79;100.00
9249;BME280;4660;41.768;26.198;2023-04-06T05:12:38;100463.50;;;3.98;100.00
9249;BME280;4660;41.768;26.198;2023-04-06T05:15:08;100477.50;;;4.14;100.00
9249;BME280;4660;41.768;26.198;2023-04-06T05:18:07;100606.72;;;4.96;100.00
9249;BME280;4660;41.768;26.198;2023-04-06T05:20:47;100430.09;;;3.94;100.00
9249;BME280;4660;41.768;26.198;2023-04-06T05:23:16;100484.72;;;4.38;100.00
9249;BME280;4660;41.768;26.198;2023-04-06T05:25:46;100482.25;;;4.35;100.00
9249;BME280;4660;41.768;26.198;2023-04-06T05:28:16;100548.06;;;4.84;100.00
9249;BME280;4660;41.768;26.198;2023-04-06T05:30:44;100559.06;;;5.29;100.00
9249;BME280;4660;41.768;26.198;2023-04-06T05:33:14;100604.47;;;5.76;100.00
9249;BME280;4660;41.768;26.198;2023-04-06T05:41:02;100478.97;;;4.93;100.00
9249;BME280;4660;41.768;26.198;2023-04-06T05:44:24;100521.75;;;5.52;100.00
9249;BME280;4660;41.768;26.198;2023-04-06T06:30:42;100511.78;;;6.14;100.00
9249;BME280;4660;41.768;26.198;2023-04-06T06:33:32;100558.97;;;6.37;100.00
9249;BME280;4660;41.768;26.198;2023-04-06T06:43:59;100576.63;;;6.51;100.00
9249;BME280;4660;41.768;26.198;2023-04-06T06:46:33;100469.66;;;5.95;100.00
9249;BME280;4660;41.768;26.198;2023-04-06T06:49:17;100557.66;;;6.54;100.00
9249;BME280;4660;41.768;26.198;2023-04-06T06:52:15;100584.97;;;6.46;100.00
9249;BME280;4660;41.768;26.198;2023-04-06T06:54:48;100475.25;;;6.03;100.00
9249;BME280;4660;41.768;26.198;2023-04-06T06:57:15;100582.69;;;6.64;100.00
9249;BME280;4660;41.768;26.198;2023-04-06T06:59:42;100593.53;;;6.85;100.00
9249;BME280;4660;41.768;26.198;2023-04-06T07:02:08;100610.69;;;7.16;100.00
9249;BME280;4660;41.768;26.198;2023-04-06T07:04:34;100604.97;;;7.43;100.00
9249;BME280;4660;41.768;26.198;2023-04-06T07:07:04;100557.69;;;7.10;100.00
9249;BME280;4660;41.768;26.198;2023-04-06T07:09:32;100589.75;;;7.32;100.00
9249;BME280;4660;41.768;26.198;2023-04-06T07:12:00;100608.63;;;7.20;100.00
9249;BME280;4660;41.768;26.198;2023-04-06T07:14:27;100596.59;;;7.03;100.00
9249;BME280;4660;41.768;26.198;2023-04-06T07:16:58;100594.66;;;6.94;100.00
9249;BME280;4660;41.768;26.198;2023-04-06T07:19:24;100598.91;;;6.96;100.00
9249;BME280;4660;41.768;26.198;2023-04-06T07:21:51;100575.19;;;7.03;100.00
9249;BME280;4660;41.768;26.198;2023-04-06T07:24:18;100578.34;;;7.19;100.00
9249;BME280;4660;41.768;26.198;2023-04-06T07:26:49;100592.53;;;7.53;100.00
9249;BME280;4660;41.768;26.198;2023-04-06T07:29:18;100602.31;;;7.86;100.00
9249;BME280;4660;41.768;26.198;2023-04-06T07:31:44;100572.16;;;7.73;100.00
9249;BME280;4660;41.768;26.198;2023-04-06T07:34:11;100601.59;;;8.05;100.00
9249;BME280;4660;41.768;26.198;2023-04-06T07:36:38;100592.72;;;8.05;100.00
9249;BME280;4660;41.768;26.198;2023-04-06T07:39:16;100592.63;;;8.27;100.00
9249;BME280;4660;41.768;26.198;2023-04-06T07:41:45;100592.66;;;8.48;100.00
9249;BME280;4660;41.768;26.198;2023-04-06T07:58:08;100582.88;;;8.89;100.00
9249;BME280;4660;41.768;26.198;2023-04-06T08:00:47;100507.06;;;8.56;100.00
9249;BME280;4660;41.768;26.198;2023-04-06T08:03:27;100501.81;;;8.54;100.00
9249;BME280;4660;41.768;26.198;2023-04-06T08:05:56;100603.59;;;9.07;100.00
9249;BME280;4660;41.768;26.198;2023-04-06T08:08:26;100580.97;;;9.00;100.00
9249;BME280;4660;41.768;26.198;2023-04-06T08:11:14;100486.13;;;8.50;100.00
9249;BME280;4660;41.768;26.198;2023-04-06T08:14:37;100470.41;;;8.66;100.00
9249;BME280;4660;41.768;26.198;2023-04-06T08:17:48;100575.03;;;9.06;100.00
9249;BME280;4660;41.768;26.198;2023-04-06T08:20:44;100570.28;;;9.20;100.00
9249;BME280;4660;41.768;26.198;2023-04-06T08:25:57;100519.06;;;9.42;100.00
9249;BME280;4660;41.768;26.198;2023-04-06T08:31:38;100483.59;;;9.29;100.00
9249;BME280;4660;41.768;26.198;2023-04-06T08:37:51;100562.66;;;10.04;100.00
9249;BME280;4660;41.768;26.198;2023-04-06T08:41:01;100512.59;;;9.64;100.00
9249;BME280;4660;41.768;26.198;2023-04-06T08:43:41;100549.75;;;9.49;100.00
9249;BME280;4660;41.768;26.198;2023-04-06T08:46:28;100501.41;;;9.49;100.00
9249;BME280;4660;41.768;26.198;2023-04-06T08:49:43;100484.31;;;9.70;100.00
9249;BME280;4660;41.768;26.198;2023-04-06T08:52:13;100571.16;;;10.18;100.00
9249;BME280;4660;41.768;26.198;2023-04-06T09:00:09;100460.88;;;9.52;100.00
9249;BME280;4660;41.768;26.198;2023-04-06T09:05:39;100424.38;;;9.69;100.00
9249;BME280;4660;41.768;26.198;2023-04-06T09:24:08;100500.44;;;10.74;94.97
9249;BME280;4660;41.768;26.198;2023-04-06T09:32:04;100370.59;;;10.45;94.85
9249;BME280;4660;41.768;26.198;2023-04-06T09:34:52;100502.56;;;10.98;92.54
9249;BME280;4660;41.768;26.198;2023-04-06T09:37:20;100376.97;;;10.44;94.20
9249;BME280;4660;41.768;26.198;2023-04-06T09:40:08;100503.38;;;11.36;90.91
9249;BME280;4660;41.768;26.198;2023-04-06T09:42:48;100425.56;;;11.15;91.12
9249;BME280;4660;41.768;26.198;2023-04-06T09:45:20;100378.53;;;10.92;90.52
9249;BME280;4660;41.768;26.198;2023-04-06T09:48:08;100424.94;;;11.39;91.17
9249;BME280;4660;41.768;26.198;2023-04-06T09:53:58;100379.94;;;11.32;89.21
9249;BME280;4660;41.768;26.198;2023-04-06T10:07:11;100366.59;;;11.66;86.99
9249;BME280;4660;41.768;26.198;2023-04-06T10:23:13;100454.91;;;12.42;81.81
9249;BME280;4660;41.768;26.198;2023-04-06T10:25:34;100407.28;;;12.24;82.01
9249;BME280;4660;41.768;26.198;2023-04-06T10:28:06;100388.44;;;12.32;83.29
9249;BME280;4660;41.768;26.198;2023-04-06T10:38:43;100435.56;;;12.80;83.45
9249;BME280;4660;41.768;26.198;2023-04-06T10:41:36;100423.47;;;13.01;81.33
9249;BME280;4660;41.768;26.198;2023-04-06T10:44:06;100408.09;;;12.93;80.01
9249;BME280;4660;41.768;26.198;2023-04-06T10:46:34;100414.16;;;12.87;79.92
9249;BME280;4660;41.768;26.198;2023-04-06T10:51:39;100288.59;;;12.16;79.82
9249;BME280;4660;41.768;26.198;2023-04-06T10:54:08;100413.63;;;12.83;76.48
9249;BME280;4660;41.768;26.198;2023-04-06T10:57:01;100389.75;;;12.28;77.82
9249;BME280;4660;41.768;26.198;2023-04-06T10:59:29;100293.03;;;11.73;80.11
9249;BME280;4660;41.768;26.198;2023-04-06T11:02:00;100361.31;;;12.34;81.40
9249;BME280;4660;41.768;26.198;2023-04-06T11:04:27;100409.19;;;12.66;81.74
9249;BME280;4660;41.768;26.198;2023-04-06T11:06:55;100339.81;;;12.16;81.27
9249;BME280;4660;41.768;26.198;2023-04-06T11:09:27;100362.53;;;12.48;79.85
9249;BME280;4660;41.768;26.198;2023-04-06T11:14:32;100322.47;;;12.61;77.75
9249;BME280;4660;41.768;26.198;2023-04-06T11:17:02;100397.31;;;13.01;80.00
9249;BME280;4660;41.768;26.198;2023-04-06T11:19:42;100394.22;;;12.80;81.24
9249;BME280;4660;41.768;26.198;2023-04-06T11:24:47;100264.66;;;12.21;79.63
9249;BME280;4660;41.768;26.198;2023-04-06T11:27:16;100314.63;;;12.42;76.72
9249;BME280;4660;41.768;26.198;2023-04-06T11:29:43;100388.66;;;12.89;78.97
9249;BME280;4660;41.768;26.198;2023-04-06T11:32:22;100240.31;;;12.05;77.86
9249;BME280;4660;41.768;26.198;2023-04-06T11:35:26;100251.34;;;12.20;77.62
9249;BME280;4660;41.768;26.198;2023-04-06T11:55:15;100370.56;;;13.40;76.34
9249;BME280;4660;41.768;26.198;2023-04-06T11:57:44;100362.63;;;13.23;77.90
9249;BME280;4660;41.768;26.198;2023-04-06T12:00:15;100362.53;;;13.06;76.46
9249;BME280;4660;41.768;26.198;2023-04-06T12:03:05;100369.53;;;13.25;77.25
9249;BME280;4660;41.768;26.198;2023-04-06T12:05:33;100364.66;;;13.45;74.95
9249;BME280;4660;41.768;26.198;2023-04-06T12:08:02;100369.88;;;13.79;74.79
9249;BME280;4660;41.768;26.198;2023-04-06T12:10:32;100370.69;;;13.96;73.08
9249;BME280;4660;41.768;26.198;2023-04-06T12:13:00;100359.53;;;13.91;72.93
9249;BME280;4660;41.768;26.198;2023-04-06T12:15:31;100366.97;;;14.05;70.35
9249;BME280;4660;41.768;26.198;2023-04-06T12:18:01;100367.50;;;14.00;69.74
9249;BME280;4660;41.768;26.198;2023-04-06T12:20:31;100351.25;;;14.00;67.56
9249;BME280;4660;41.768;26.198;2023-04-06T12:22:58;100344.13;;;14.16;69.27
9249;BME280;4660;41.768;26.198;2023-04-06T12:25:26;100303.50;;;14.24;69.28
9249;BME280;4660;41.768;26.198;2023-04-06T12:27:54;100352.13;;;14.48;66.67
9249;BME280;4660;41.768;26.198;2023-04-06T12:30:22;100310.38;;;14.35;63.73
9249;BME280;4660;41.768;26.198;2023-04-06T12:32:53;100331.16;;;14.50;65.45
9249;BME280;4660;41.768;26.198;2023-04-06T12:35:20;100338.22;;;14.59;65.02
9249;BME280;4660;41.768;26.198;2023-04-06T12:37:47;100337.44;;;14.51;62.71
9249;BME280;4660;41.768;26.198;2023-04-06T12:40:13;100315.09;;;14.41;64.38
9249;BME280;4660;41.768;26.198;2023-04-06T12:42:43;100323.03;;;14.42;67.72
9249;BME280;4660;41.768;26.198;2023-04-06T12:45:12;100327.41;;;14.59;63.40
9249;BME280;4660;41.768;26.198;2023-04-06T12:47:41;100338.66;;;14.32;62.57
9249;BME280;4660;41.768;26.198;2023-04-06T12:50:12;100321.91;;;14.37;62.92
9249;BME280;4660;41.768;26.198;2023-04-06T12:52:41;100323.44;;;14.70;61.04
9249;BME280;4660;41.768;26.198;2023-04-06T12:55:08;100326.22;;;14.85;60.01
9249;BME280;4660;41.768;26.198;2023-04-06T12:57:34;100311.28;;;14.66;59.66
9249;BME280;4660;41.768;26.198;2023-04-06T13:00:04;100330.06;;;14.68;59.04
9249;BME280;4660;41.768;26.198;2023-04-06T13:02:33;100326.97;;;14.71;56.46
9249;BME280;4660;41.768;26.198;2023-04-06T13:04:59;100317.63;;;14.50;58.64
9249;BME280;4660;41.768;26.198;2023-04-06T13:07:25;100310.03;;;14.38;59.98
9249;BME280;4660;41.768;26.198;2023-04-06T13:09:51;100296.50;;;14.46;59.04
9249;BME280;4660;41.768;26.198;2023-04-06T13:12:24;100318.47;;;14.82;57.33
9249;BME280;4660;41.768;26.198;2023-04-06T13:14:54;100299.91;;;14.71;56.25
9249;BME280;4660;41.768;26.198;2023-04-06T13:17:20;100292.63;;;14.71;54.42
9249;BME280;4660;41.768;26.198;2023-04-06T13:19:49;100286.16;;;14.49;56.59
9249;BME280;4660;41.768;26.198;2023-04-06T13:22:27;100298.97;;;14.55;55.17
9249;BME280;4660;41.768;26.198;2023-04-06T13:24:56;100293.50;;;14.64;55.04
9249;BME280;4660;41.768;26.198;2023-04-06T13:27:25;100305.91;;;14.89;56.63
9249;BME280;4660;41.768;26.198;2023-04-06T13:29:53;100297.78;;;15.12;56.32
9249;BME280;4660;41.768;26.198;2023-04-06T13:32:21;100300.09;;;15.38;53.53
9249;BME280;4660;41.768;26.198;2023-04-06T13:34:46;100281.50;;;15.12;52.76
9249;BME280;4660;41.768;26.198;2023-04-06T13:37:15;100296.22;;;14.95;52.53
9249;BME280;4660;41.768;26.198;2023-04-06T13:39:49;100288.28;;;14.93;56.24
9249;BME280;4660;41.768;26.198;2023-04-06T13:42:19;100287.19;;;15.02;56.07
9249;BME280;4660;41.768;26.198;2023-04-06T13:44:45;100266.16;;;15.04;53.55
9249;BME280;4660;41.768;26.198;2023-04-06T13:47:12;100296.09;;;14.88;52.97
9249;BME280;4660;41.768;26.198;2023-04-06T13:49:38;100264.75;;;14.63;53.30
9249;BME280;4660;41.768;26.198;2023-04-06T13:52:04;100286.56;;;14.92;52.43
9249;BME280;4660;41.768;26.198;2023-04-06T13:54:30;100292.22;;;15.05;51.60
9249;BME280;4660;41.768;26.198;2023-04-06T13:56:57;100294.91;;;15.28;52.40
9249;BME280;4660;41.768;26.198;2023-04-06T13:59:43;100294.59;;;15.08;52.16
9249;BME280;4660;41.768;26.198;2023-04-06T14:02:10;100284.16;;;14.97;53.78
9249;BME280;4660;41.768;26.198;2023-04-06T14:04:36;100283.69;;;15.17;53.76
9249;BME280;4660;41.768;26.198;2023-04-06T14:07:03;100288.63;;;15.36;54.56
9249;BME280;4660;41.768;26.198;2023-04-06T14:09:30;100266.44;;;15.32;51.90
9249;BME280;4660;41.768;26.198;2023-04-06T14:11:56;100278.56;;;15.59;51.54
9249;BME280;4660;41.768;26.198;2023-04-06T14:14:22;100258.22;;;15.40;52.95
9249;BME280;4660;41.768;26.198;2023-04-06T14:16:48;100275.66;;;15.61;52.23
9249;BME280;4660;41.768;26.198;2023-04-06T14:19:15;100257.91;;;15.58;50.98
9249;BME280;4660;41.768;26.198;2023-04-06T14:21:43;100271.09;;;15.61;52.56
9249;BME280;4660;41.768;26.198;2023-04-06T14:24:11;100263.47;;;15.42;53.22
9249;BME280;4660;41.768;26.198;2023-04-06T14:26:38;100270.78;;;15.56;52.87
9249;BME280;4660;41.768;26.198;2023-04-06T14:29:04;100265.56;;;15.55;51.65
9249;BME280;4660;41.768;26.198;2023-04-06T14:31:30;100260.94;;;15.40;54.69
9249;BME280;4660;41.768;26.198;2023-04-06T14:33:56;100272.34;;;15.36;55.65
9249;BME280;4660;41.768;26.198;2023-04-06T14:36:47;100227.59;;;15.02;53.79
9249;BME280;4660;41.768;26.198;2023-04-06T14:39:12;100236.59;;;15.18;53.28
9249;BME280;4660;41.768;26.198;2023-04-06T14:41:39;100250.47;;;15.37;52.92
9249;BME280;4660;41.768;26.198;2023-04-06T14:44:29;100275.63;;;15.84;51.36
9249;BME280;4660;41.768;26.198;2023-04-06T14:46:58;100274.78;;;15.98;53.11
9249;BME280;4660;41.768;26.198;2023-04-06T14:49:24;100255.44;;;15.49;52.13
9249;BME280;4660;41.768;26.198;2023-04-06T14:51:50;100260.94;;;15.40;53.16
9249;BME280;4660;41.768;26.198;2023-04-06T14:54:16;100226.19;;;15.44;56.17
9249;BME280;4660;41.768;26.198;2023-04-06T14:56:42;100263.97;;;15.60;54.38
9249;BME280;4660;41.768;26.198;2023-04-06T14:59:08;100274.81;;;15.60;55.49
9249;BME280;4660;41.768;26.198;2023-04-06T15:01:34;100274.31;;;15.80;52.80
9249;BME280;4660;41.768;26.198;2023-04-06T15:04:03;100261.22;;;15.98;55.43
9249;BME280;4660;41.768;26.198;2023-04-06T15:06:29;100267.72;;;15.59;53.99
9249;BME280;4660;41.768;26.198;2023-04-06T15:08:56;100281.25;;;15.45;56.83
9249;BME280;4660;41.768;26.198;2023-04-06T15:11:24;100273.44;;;15.27;56.36
9249;BME280;4660;41.768;26.198;2023-04-06T15:13:55;100282.00;;;15.16;58.08
9249;BME280;4660;41.768;26.198;2023-04-06T15:16:20;100274.41;;;15.11;58.70
9249;BME280;4660;41.768;26.198;2023-04-06T15:18:46;100275.81;;;15.45;58.55
9249;BME280;4660;41.768;26.198;2023-04-06T15:21:12;100290.03;;;15.84;57.04
9249;BME280;4660;41.768;26.198;2023-04-06T15:23:37;100288.72;;;15.95;57.97
9249;BME280;4660;41.768;26.198;2023-04-06T15:26:03;100269.63;;;16.03;59.49
9249;BME280;4660;41.768;26.198;2023-04-06T15:28:29;100289.38;;;15.97;55.40
9249;BME280;4660;41.768;26.198;2023-04-06T15:30:57;100289.59;;;15.58;56.37
9249;BME280;4660;41.768;26.198;2023-04-06T15:33:24;100293.00;;;15.14;58.72
9249;BME280;4660;41.768;26.198;2023-04-06T15:35:50;100297.72;;;14.97;59.15
9249;BME280;4660;41.768;26.198;2023-04-06T15:38:16;100279.72;;;15.04;61.29
9249;BME280;4660;41.768;26.198;2023-04-06T15:40:44;100270.09;;;15.02;58.58
9249;BME280;4660;41.768;26.198;2023-04-06T15:43:11;100291.97;;;15.38;58.71
9249;BME280;4660;41.768;26.198;2023-04-06T15:45:36;100305.38;;;15.54;58.46
9249;BME280;4660;41.768;26.198;2023-04-06T15:48:02;100281.31;;;15.13;60.64
9249;BME280;4660;41.768;26.198;2023-04-06T15:50:28;100294.63;;;14.77;62.61
9249;BME280;4660;41.768;26.198;2023-04-06T15:52:54;100281.09;;;14.46;63.02
9249;BME280;4660;41.768;26.198;2023-04-06T15:55:19;100296.81;;;14.51;64.28
9249;BME280;4660;41.768;26.198;2023-04-06T15:57:49;100288.41;;;14.38;65.68
9249;BME280;4660;41.768;26.198;2023-04-06T16:00:17;100293.91;;;14.05;67.44
9249;BME280;4660;41.768;26.198;2023-04-06T16:02:44;100304.13;;;13.87;69.39
9249;BME280;4660;41.768;26.198;2023-04-06T16:05:10;100279.19;;;13.60;71.42
9249;BME280;4660;41.768;26.198;2023-04-06T16:07:36;100281.38;;;13.48;72.65
9249;BME280;4660;41.768;26.198;2023-04-06T16:10:06;100311.59;;;13.60;72.19
9249;BME280;4660;41.768;26.198;2023-04-06T16:12:32;100310.25;;;13.48;73.10
9249;BME280;4660;41.768;26.198;2023-04-06T16:14:58;100305.22;;;13.45;74.31
9249;BME280;4660;41.768;26.198;2023-04-06T16:17:24;100294.88;;;13.48;74.50